EGGW

London Luton Airport

Airport
ICAO code
EGGW
IATA Code
LTN
Summary
ICAO Region
EUR
ICAO Territory
Location

Luton, Bedfordshire,

Serving
Luton
Elevation
526 ft
Coordinates
51° 52' 31" N , 0° 22' 10" W
KCC
Metar
Observation
EGGW 041350Z AUTO 22014KT 9999 FEW016 BKN024 BKN030 17/11 Q1015
Station
Luton Airport
Date/Time
2022-10-04 13:50:00
Wind direction
220°
Wind speed
14 kts
Lowest cloud amount
few clouds
Temperature
17°C
Dew point
11°C
Humidity
67%
QNH
1015 hPa
Weather condition
n/a

Description

International airport with scheduled and business traffic.

Climatology

Temperate Marine climate/Oceanic climate (Köppen climate classification Cfb). Moderately cool summer and comparatively warm winter with a temperature range of only 14°C. Prevailing south-westerly winds.

Runways

Designator Length Width Surface Rops
8/26 2160 46 ASP Yes/Yes

Airport map

Aerial View

SKYbrary Partners:

Safety knowledge contributed by: